Terminal Aerodrome Forecast
Issued by NWS

Home | Current Version | Previous Version | Text Only | Print | Product List | Glossary On
Versions: 1 2 3 4 5 6 7 8 9 10 11 12 13 14 15 16 17
000
FTUS45 KVEF 311100
TAFHND
TAF
KHND 311120Z 3112/0112 VRB05KT P6SM VCSH SCT009 BKN030
     FM311500 01006KT P6SM SCT035 BKN050
     FM311900 01011G18KT P6SM FEW050 SCT080
     FM010400 35011KT P6SM SKC=

USA.gov is the U.S. government's official web portal to all federal, state and local government web resources and services.